Newcastle Airport

Airport
ICAO code: 
EGNT
IATA Code: 
NCL
Summary
ICAO Region: 
EUR
Territory: 
Location: 
Woolsington, Newcastle, England
Serving: 
Newcastle
Elevation: 
266 ft
Coordinates: 
Aerial View: 
55° 2' 12" N, 1° 41' 30" W
Metar
Observation
EGNT 210450Z AUTO 27006KT 9999 FEW022/// 00/M01 Q1036
Station
Newcastle
Date/Time
2022-01-21 04:50:00
Wind direction
270°
Wind speed
06 kts
Lowest cloud amount
few clouds
Temperature
0°C
Dew point
-1°C
Humidity
92%
QNH
1036 hPa
Weather condition
n/a

Description

Domestic and international airport serving Newcastle, Gateshead the north-east of England.

Climatology

Temperate Marine climate/Oceanic climate (Köppen climate classification Cfb). Moderately cool summer and comparatively warm winter with a temperature range of only 14°C. Prevailing south-westerly winds from the Atlantic Ocean.

Runways

Designator Length Width Surface Rops
7/25 2329 46 ASP Yes/Yes
Airport map: 
Aerial View: 

Accidents and Serious Incidents at or in the vicinity of EGNT

SKYbrary Partners:

Safety knowledge contributed by: